sensor_id;sensor_type;location;lat;lon;timestamp;pressure;altitude;pressure_sealevel;temperature;humidity
9538;BME280;4807;48.024;11.726;2022-10-03T00:02:06;95636.59;;;10.95;86.72
9538;BME280;4807;48.024;11.726;2022-10-03T00:05:36;95639.19;;;10.88;87.17
9538;BME280;4807;48.024;11.726;2022-10-03T00:09:19;95639.56;;;10.85;87.38
9538;BME280;4807;48.024;11.726;2022-10-03T00:12:52;95645.72;;;10.86;88.24
9538;BME280;4807;48.024;11.726;2022-10-03T00:16:14;95646.97;;;10.90;87.73
9538;BME280;4807;48.024;11.726;2022-10-03T00:19:38;95637.34;;;10.89;87.21
9538;BME280;4807;48.024;11.726;2022-10-03T00:22:57;95646.91;;;10.83;87.51
9538;BME280;4807;48.024;11.726;2022-10-03T00:26:19;95649.56;;;10.83;87.33
9538;BME280;4807;48.024;11.726;2022-10-03T00:30:05;95648.94;;;10.81;87.34
9538;BME280;4807;48.024;11.726;2022-10-03T00:33:31;95642.50;;;10.76;87.55
9538;BME280;4807;48.024;11.726;2022-10-03T00:36:52;95653.19;;;10.61;86.87
9538;BME280;4807;48.024;11.726;2022-10-03T00:40:49;95643.50;;;10.30;87.37
9538;BME280;4807;48.024;11.726;2022-10-03T00:49:08;95660.34;;;9.85;88.18
9538;BME280;4807;48.024;11.726;2022-10-03T00:52:57;95660.56;;;9.99;88.51
9538;BME280;4807;48.024;11.726;2022-10-03T00:56:34;95661.28;;;9.92;88.73
9538;BME280;4807;48.024;11.726;2022-10-03T01:00:13;95662.78;;;9.95;88.58
9538;BME280;4807;48.024;11.726;2022-10-03T01:03:40;95663.50;;;9.89;88.61
9538;BME280;4807;48.024;11.726;2022-10-03T01:07:06;95664.19;;;9.83;88.44
9538;BME280;4807;48.024;11.726;2022-10-03T01:10:26;95671.22;;;9.76;88.62
9538;BME280;4807;48.024;11.726;2022-10-03T01:13:54;95669.47;;;9.68;88.80
9538;BME280;4807;48.024;11.726;2022-10-03T01:17:17;95670.25;;;9.54;89.20
9538;BME280;4807;48.024;11.726;2022-10-03T01:20:35;95676.06;;;9.49;89.25
9538;BME280;4807;48.024;11.726;2022-10-03T01:24:18;95670.97;;;9.48;88.80
9538;BME280;4807;48.024;11.726;2022-10-03T01:27:42;95676.63;;;9.14;89.48
9538;BME280;4807;48.024;11.726;2022-10-03T01:31:13;95674.69;;;9.08;89.88
9538;BME280;4807;48.024;11.726;2022-10-03T01:34:32;95672.22;;;8.98;90.86
9538;BME280;4807;48.024;11.726;2022-10-03T01:37:53;95675.06;;;8.97;90.69
9538;BME280;4807;48.024;11.726;2022-10-03T01:41:10;95680.09;;;8.84;90.31
9538;BME280;4807;48.024;11.726;2022-10-03T01:44:28;95681.09;;;8.83;90.28
9538;BME280;4807;48.024;11.726;2022-10-03T01:47:48;95695.00;;;8.85;89.85
9538;BME280;4807;48.024;11.726;2022-10-03T01:51:06;95701.72;;;9.11;89.44
9538;BME280;4807;48.024;11.726;2022-10-03T01:54:28;95703.19;;;9.14;89.50
9538;BME280;4807;48.024;11.726;2022-10-03T01:57:48;95708.50;;;9.14;89.46
9538;BME280;4807;48.024;11.726;2022-10-03T02:01:08;95710.72;;;9.33;88.69
9538;BME280;4807;48.024;11.726;2022-10-03T02:04:41;95717.22;;;9.31;88.89
9538;BME280;4807;48.024;11.726;2022-10-03T02:07:59;95725.38;;;9.29;88.58
9538;BME280;4807;48.024;11.726;2022-10-03T02:11:29;95741.78;;;9.33;89.85
9538;BME280;4807;48.024;11.726;2022-10-03T02:14:50;95735.31;;;9.35;89.87
9538;BME280;4807;48.024;11.726;2022-10-03T02:18:12;95731.59;;;9.44;89.67
9538;BME280;4807;48.024;11.726;2022-10-03T02:21:27;95737.91;;;9.43;89.74
9538;BME280;4807;48.024;11.726;2022-10-03T02:24:45;95742.56;;;9.41;89.92
9538;BME280;4807;48.024;11.726;2022-10-03T02:28:47;95732.59;;;9.43;89.47
9538;BME280;4807;48.024;11.726;2022-10-03T02:32:58;95726.94;;;9.46;89.70
9538;BME280;4807;48.024;11.726;2022-10-03T02:37:06;95733.25;;;9.45;88.92
9538;BME280;4807;48.024;11.726;2022-10-03T02:40:45;95737.78;;;9.37;88.72
9538;BME280;4807;48.024;11.726;2022-10-03T02:44:52;95732.69;;;9.27;89.42
9538;BME280;4807;48.024;11.726;2022-10-03T02:52:52;95732.75;;;9.11;89.24
9538;BME280;4807;48.024;11.726;2022-10-03T03:00:17;95733.13;;;9.08;89.62
9538;BME280;4807;48.024;11.726;2022-10-03T03:07:36;95743.97;;;8.90;89.88
9538;BME280;4807;48.024;11.726;2022-10-03T03:11:15;95741.81;;;8.86;89.55
9538;BME280;4807;48.024;11.726;2022-10-03T03:15:29;95739.84;;;8.79;90.17
9538;BME280;4807;48.024;11.726;2022-10-03T03:19:30;95754.94;;;8.79;89.31
9538;BME280;4807;48.024;11.726;2022-10-03T03:23:09;95758.09;;;8.83;89.54
9538;BME280;4807;48.024;11.726;2022-10-03T03:26:50;95763.44;;;8.74;89.87
9538;BME280;4807;48.024;11.726;2022-10-03T03:30:10;95768.75;;;8.74;89.73
9538;BME280;4807;48.024;11.726;2022-10-03T03:33:30;95766.78;;;8.44;89.08
9538;BME280;4807;48.024;11.726;2022-10-03T03:36:50;95771.25;;;8.27;90.06
9538;BME280;4807;48.024;11.726;2022-10-03T03:40:35;95777.56;;;8.18;90.54
9538;BME280;4807;48.024;11.726;2022-10-03T03:44:11;95781.06;;;8.27;90.37
9538;BME280;4807;48.024;11.726;2022-10-03T03:48:03;95779.75;;;8.39;90.76
9538;BME280;4807;48.024;11.726;2022-10-03T03:51:31;95779.19;;;8.60;90.43
9538;BME280;4807;48.024;11.726;2022-10-03T03:55:08;95782.34;;;8.71;90.92
9538;BME280;4807;48.024;11.726;2022-10-03T03:58:32;95785.28;;;8.85;91.04
9538;BME280;4807;48.024;11.726;2022-10-03T04:02:00;95783.78;;;8.98;90.35
9538;BME280;4807;48.024;11.726;2022-10-03T04:05:29;95790.94;;;8.98;90.00
9538;BME280;4807;48.024;11.726;2022-10-03T04:09:02;95795.38;;;9.05;90.50
9538;BME280;4807;48.024;11.726;2022-10-03T04:12:32;95790.22;;;9.12;89.80
9538;BME280;4807;48.024;11.726;2022-10-03T04:20:13;95794.56;;;9.05;89.89
9538;BME280;4807;48.024;11.726;2022-10-03T04:23:55;95788.56;;;9.03;89.76
9538;BME280;4807;48.024;11.726;2022-10-03T04:27:27;95791.06;;;9.04;89.57
9538;BME280;4807;48.024;11.726;2022-10-03T04:30:58;95795.19;;;9.15;89.01
9538;BME280;4807;48.024;11.726;2022-10-03T04:34:31;95795.53;;;9.04;89.77
9538;BME280;4807;48.024;11.726;2022-10-03T04:37:46;95800.84;;;9.04;89.53
9538;BME280;4807;48.024;11.726;2022-10-03T04:41:08;95791.91;;;9.05;89.52
9538;BME280;4807;48.024;11.726;2022-10-03T04:44:41;95794.59;;;8.89;89.56
9538;BME280;4807;48.024;11.726;2022-10-03T04:48:00;95801.91;;;8.78;89.37
9538;BME280;4807;48.024;11.726;2022-10-03T04:51:26;95798.97;;;8.65;89.67
9538;BME280;4807;48.024;11.726;2022-10-03T04:54:51;95795.50;;;8.49;89.48
9538;BME280;4807;48.024;11.726;2022-10-03T04:58:16;95796.66;;;8.38;89.52
9538;BME280;4807;48.024;11.726;2022-10-03T05:01:39;95795.50;;;8.32;89.18
9538;BME280;4807;48.024;11.726;2022-10-03T05:05:27;95799.44;;;8.28;89.10
9538;BME280;4807;48.024;11.726;2022-10-03T05:08:55;95801.59;;;8.17;88.86
9538;BME280;4807;48.024;11.726;2022-10-03T05:12:16;95799.94;;;8.16;89.00
9538;BME280;4807;48.024;11.726;2022-10-03T05:15:37;95803.59;;;8.15;89.13
9538;BME280;4807;48.024;11.726;2022-10-03T05:18:55;95798.44;;;8.05;90.02
9538;BME280;4807;48.024;11.726;2022-10-03T05:22:26;95807.91;;;8.08;90.26
9538;BME280;4807;48.024;11.726;2022-10-03T05:25:57;95813.88;;;8.01;89.90
9538;BME280;4807;48.024;11.726;2022-10-03T05:29:38;95807.22;;;8.14;90.83
9538;BME280;4807;48.024;11.726;2022-10-03T05:32:56;95810.88;;;8.29;90.88
9538;BME280;4807;48.024;11.726;2022-10-03T05:36:28;95818.03;;;8.45;89.81
9538;BME280;4807;48.024;11.726;2022-10-03T05:39:45;95820.88;;;8.43;89.46
9538;BME280;4807;48.024;11.726;2022-10-03T05:43:10;95824.00;;;8.55;89.36
9538;BME280;4807;48.024;11.726;2022-10-03T05:46:55;95829.66;;;8.43;89.87
9538;BME280;4807;48.024;11.726;2022-10-03T05:50:35;95835.13;;;8.66;89.33
9538;BME280;4807;48.024;11.726;2022-10-03T05:54:27;95818.38;;;8.66;89.24
9538;BME280;4807;48.024;11.726;2022-10-03T05:58:27;95842.41;;;8.80;89.28
9538;BME280;4807;48.024;11.726;2022-10-03T06:06:13;95835.09;;;8.99;88.95
9538;BME280;4807;48.024;11.726;2022-10-03T06:10:15;95836.00;;;9.22;89.31
9538;BME280;4807;48.024;11.726;2022-10-03T06:13:53;95857.69;;;9.42;88.60
9538;BME280;4807;48.024;11.726;2022-10-03T06:17:48;95847.81;;;9.58;87.78
9538;BME280;4807;48.024;11.726;2022-10-03T06:25:44;95856.13;;;9.64;86.99
9538;BME280;4807;48.024;11.726;2022-10-03T06:33:55;95869.66;;;9.85;86.14
9538;BME280;4807;48.024;11.726;2022-10-03T06:38:03;95872.09;;;9.94;86.44
9538;BME280;4807;48.024;11.726;2022-10-03T06:46:12;95888.78;;;10.19;84.81
9538;BME280;4807;48.024;11.726;2022-10-03T06:50:27;95890.75;;;10.25;83.77
9538;BME280;4807;48.024;11.726;2022-10-03T06:58:12;95889.47;;;10.67;83.72
9538;BME280;4807;48.024;11.726;2022-10-03T07:01:58;95883.09;;;10.91;83.69
9538;BME280;4807;48.024;11.726;2022-10-03T07:05:53;95889.84;;;11.01;82.46
9538;BME280;4807;48.024;11.726;2022-10-03T07:10:00;95897.38;;;11.13;82.50
9538;BME280;4807;48.024;11.726;2022-10-03T07:13:36;95891.06;;;11.14;82.44
9538;BME280;4807;48.024;11.726;2022-10-03T07:17:16;95898.88;;;11.30;81.38
9538;BME280;4807;48.024;11.726;2022-10-03T07:21:29;95893.19;;;11.33;82.47
9538;BME280;4807;48.024;11.726;2022-10-03T07:25:40;95900.97;;;11.20;81.86
9538;BME280;4807;48.024;11.726;2022-10-03T07:29:15;95905.13;;;11.22;81.69
9538;BME280;4807;48.024;11.726;2022-10-03T07:33:19;95908.97;;;11.20;80.95
9538;BME280;4807;48.024;11.726;2022-10-03T07:37:17;95916.28;;;11.26;80.76
9538;BME280;4807;48.024;11.726;2022-10-03T07:41:19;95927.06;;;11.47;80.77
9538;BME280;4807;48.024;11.726;2022-10-03T07:45:22;95923.56;;;11.46;80.54
9538;BME280;4807;48.024;11.726;2022-10-03T07:49:03;95927.22;;;11.60;79.69
9538;BME280;4807;48.024;11.726;2022-10-03T07:53:04;95930.88;;;11.82;80.09
9538;BME280;4807;48.024;11.726;2022-10-03T07:57:03;95930.59;;;11.92;80.19
9538;BME280;4807;48.024;11.726;2022-10-03T08:00:20;95937.44;;;12.30;79.04
9538;BME280;4807;48.024;11.726;2022-10-03T08:04:09;95926.72;;;12.81;77.81
9538;BME280;4807;48.024;11.726;2022-10-03T08:08:11;95923.78;;;13.18;75.10
9538;BME280;4807;48.024;11.726;2022-10-03T08:12:00;95921.53;;;13.50;74.26
9538;BME280;4807;48.024;11.726;2022-10-03T08:15:25;95914.69;;;13.68;73.60
9538;BME280;4807;48.024;11.726;2022-10-03T08:19:08;95914.13;;;13.45;73.70
9538;BME280;4807;48.024;11.726;2022-10-03T08:22:41;95914.56;;;13.55;73.59
9538;BME280;4807;48.024;11.726;2022-10-03T08:26:06;95918.28;;;13.05;74.68
9538;BME280;4807;48.024;11.726;2022-10-03T08:29:43;95921.22;;;13.10;74.17
9538;BME280;4807;48.024;11.726;2022-10-03T08:33:40;95926.31;;;13.26;72.77
9538;BME280;4807;48.024;11.726;2022-10-03T08:37:32;95925.72;;;13.59;72.49
9538;BME280;4807;48.024;11.726;2022-10-03T08:45:37;95937.34;;;14.48;68.78
9538;BME280;4807;48.024;11.726;2022-10-03T08:49:16;95936.41;;;14.28;68.52
9538;BME280;4807;48.024;11.726;2022-10-03T08:52:45;95940.47;;;14.10;69.19
9538;BME280;4807;48.024;11.726;2022-10-03T08:56:09;95935.72;;;14.12;67.73
9538;BME280;4807;48.024;11.726;2022-10-03T09:00:07;95941.16;;;14.26;68.22
9538;BME280;4807;48.024;11.726;2022-10-03T09:04:04;95939.19;;;14.41;67.24
9538;BME280;4807;48.024;11.726;2022-10-03T09:07:57;95948.81;;;14.83;66.47
9538;BME280;4807;48.024;11.726;2022-10-03T09:15:54;95942.63;;;11.58;76.98
9538;BME280;4807;48.024;11.726;2022-10-03T09:24:01;95947.03;;;12.60;76.35
9538;BME280;4807;48.024;11.726;2022-10-03T09:27:41;95952.78;;;13.00;72.95
9538;BME280;4807;48.024;11.726;2022-10-03T09:31:10;95939.03;;;13.24;72.28
9538;BME280;4807;48.024;11.726;2022-10-03T09:35:03;95940.81;;;12.75;70.59
9538;BME280;4807;48.024;11.726;2022-10-03T09:38:53;95944.22;;;11.97;74.56
9538;BME280;4807;48.024;11.726;2022-10-03T09:42:41;95955.44;;;12.07;75.69
9538;BME280;4807;48.024;11.726;2022-10-03T09:46:35;95948.69;;;12.61;71.69
9538;BME280;4807;48.024;11.726;2022-10-03T09:50:44;95947.94;;;13.53;71.14
9538;BME280;4807;48.024;11.726;2022-10-03T09:58:42;95942.09;;;14.11;65.07
9538;BME280;4807;48.024;11.726;2022-10-03T10:02:23;95943.22;;;12.70;68.87
9538;BME280;4807;48.024;11.726;2022-10-03T10:06:07;95944.03;;;11.83;73.05
9538;BME280;4807;48.024;11.726;2022-10-03T10:09:48;95944.03;;;11.83;75.10
9538;BME280;4807;48.024;11.726;2022-10-03T10:13:26;95940.44;;;11.91;72.03
9538;BME280;4807;48.024;11.726;2022-10-03T10:30:20;95927.78;;;12.29;69.85
9538;BME280;4807;48.024;11.726;2022-10-03T10:37:54;95923.81;;;12.82;67.26
9538;BME280;4807;48.024;11.726;2022-10-03T10:46:21;95925.00;;;12.37;69.97
9538;BME280;4807;48.024;11.726;2022-10-03T10:50:26;95925.88;;;12.23;68.74
9538;BME280;4807;48.024;11.726;2022-10-03T10:59:08;95926.50;;;12.82;68.79
9538;BME280;4807;48.024;11.726;2022-10-03T11:07:38;95912.38;;;14.00;66.26
9538;BME280;4807;48.024;11.726;2022-10-03T11:13:17;95909.38;;;14.70;60.87
9538;BME280;4807;48.024;11.726;2022-10-03T11:30:19;95907.44;;;14.03;66.54
9538;BME280;4807;48.024;11.726;2022-10-03T11:37:51;95913.34;;;13.51;68.22
9538;BME280;4807;48.024;11.726;2022-10-03T11:41:18;95915.09;;;13.72;68.15
9538;BME280;4807;48.024;11.726;2022-10-03T11:44:30;95913.03;;;13.67;65.97
9538;BME280;4807;48.024;11.726;2022-10-03T11:47:52;95915.75;;;12.76;68.21
9538;BME280;4807;48.024;11.726;2022-10-03T11:51:10;95911.28;;;12.61;68.85
9538;BME280;4807;48.024;11.726;2022-10-03T11:54:25;95912.16;;;13.32;68.76
9538;BME280;4807;48.024;11.726;2022-10-03T11:57:43;95908.97;;;13.22;65.98
9538;BME280;4807;48.024;11.726;2022-10-03T12:01:14;95904.41;;;13.16;66.77
9538;BME280;4807;48.024;11.726;2022-10-03T12:04:38;95900.44;;;13.33;64.47
9538;BME280;4807;48.024;11.726;2022-10-03T12:08:07;95896.44;;;13.51;63.33
9538;BME280;4807;48.024;11.726;2022-10-03T12:11:48;95894.03;;;13.28;65.58
9538;BME280;4807;48.024;11.726;2022-10-03T12:15:16;95890.31;;;13.57;63.88
9538;BME280;4807;48.024;11.726;2022-10-03T12:18:49;95884.47;;;13.81;65.54
9538;BME280;4807;48.024;11.726;2022-10-03T12:22:18;95890.84;;;13.80;65.94
9538;BME280;4807;48.024;11.726;2022-10-03T12:25:39;95889.66;;;13.89;63.16
9538;BME280;4807;48.024;11.726;2022-10-03T12:28:54;95889.25;;;13.86;61.52
9538;BME280;4807;48.024;11.726;2022-10-03T12:32:21;95892.00;;;13.64;62.37
9538;BME280;4807;48.024;11.726;2022-10-03T12:35:42;95879.06;;;13.68;61.46
9538;BME280;4807;48.024;11.726;2022-10-03T12:39:12;95872.38;;;13.92;61.64
9538;BME280;4807;48.024;11.726;2022-10-03T12:42:30;95870.41;;;14.13;58.49
9538;BME280;4807;48.024;11.726;2022-10-03T12:45:46;95873.56;;;14.24;59.23
9538;BME280;4807;48.024;11.726;2022-10-03T12:49:04;95868.91;;;14.45;58.61
9538;BME280;4807;48.024;11.726;2022-10-03T12:52:23;95867.34;;;14.91;57.54
9538;BME280;4807;48.024;11.726;2022-10-03T12:55:41;95862.75;;;15.50;57.47
9538;BME280;4807;48.024;11.726;2022-10-03T12:59:04;95863.16;;;15.41;54.69
9538;BME280;4807;48.024;11.726;2022-10-03T13:02:25;95866.06;;;15.52;56.89
9538;BME280;4807;48.024;11.726;2022-10-03T13:06:07;95861.94;;;15.70;56.11
9538;BME280;4807;48.024;11.726;2022-10-03T13:09:30;95865.19;;;15.85;54.64
9538;BME280;4807;48.024;11.726;2022-10-03T13:12:50;95857.84;;;15.21;57.17
9538;BME280;4807;48.024;11.726;2022-10-03T13:16:17;95858.25;;;15.38;57.83
9538;BME280;4807;48.024;11.726;2022-10-03T13:19:42;95855.34;;;15.46;57.24
9538;BME280;4807;48.024;11.726;2022-10-03T13:23:09;95852.47;;;15.47;54.32
9538;BME280;4807;48.024;11.726;2022-10-03T13:26:25;95856.16;;;15.59;54.14
9538;BME280;4807;48.024;11.726;2022-10-03T13:29:44;95848.34;;;15.25;53.71
9538;BME280;4807;48.024;11.726;2022-10-03T13:32:59;95852.22;;;15.49;54.85
9538;BME280;4807;48.024;11.726;2022-10-03T13:36:17;95846.28;;;14.81;55.06
9538;BME280;4807;48.024;11.726;2022-10-03T13:39:45;95842.75;;;14.54;56.25
9538;BME280;4807;48.024;11.726;2022-10-03T13:42:56;95842.97;;;14.66;56.72
9538;BME280;4807;48.024;11.726;2022-10-03T13:46:16;95842.38;;;14.97;57.20
9538;BME280;4807;48.024;11.726;2022-10-03T13:49:32;95845.88;;;15.23;56.88
9538;BME280;4807;48.024;11.726;2022-10-03T13:52:48;95845.84;;;15.43;56.16
9538;BME280;4807;48.024;11.726;2022-10-03T13:56:07;95835.53;;;15.53;55.38
9538;BME280;4807;48.024;11.726;2022-10-03T13:59:42;95834.28;;;16.14;54.40
9538;BME280;4807;48.024;11.726;2022-10-03T14:03:16;95830.31;;;16.29;53.95
9538;BME280;4807;48.024;11.726;2022-10-03T14:06:32;95823.78;;;16.06;51.17
9538;BME280;4807;48.024;11.726;2022-10-03T14:10:18;95816.63;;;16.31;53.62
9538;BME280;4807;48.024;11.726;2022-10-03T14:13:52;95815.13;;;16.41;54.01
9538;BME280;4807;48.024;11.726;2022-10-03T14:17:13;95813.44;;;16.47;52.63
9538;BME280;4807;48.024;11.726;2022-10-03T14:20:33;95809.09;;;16.08;53.46
9538;BME280;4807;48.024;11.726;2022-10-03T14:23:50;95802.22;;;15.74;53.81
9538;BME280;4807;48.024;11.726;2022-10-03T14:27:14;95814.22;;;15.72;51.64
9538;BME280;4807;48.024;11.726;2022-10-03T14:30:33;95809.69;;;15.52;54.09
9538;BME280;4807;48.024;11.726;2022-10-03T14:33:50;95816.16;;;15.32;53.02
9538;BME280;4807;48.024;11.726;2022-10-03T14:37:19;95811.34;;;15.67;54.22
9538;BME280;4807;48.024;11.726;2022-10-03T14:40:41;95809.50;;;15.47;51.75
9538;BME280;4807;48.024;11.726;2022-10-03T14:43:56;95813.66;;;15.56;53.41
9538;BME280;4807;48.024;11.726;2022-10-03T14:47:10;95809.09;;;15.44;57.31
9538;BME280;4807;48.024;11.726;2022-10-03T14:50:24;95821.75;;;14.91;59.90
9538;BME280;4807;48.024;11.726;2022-10-03T14:53:36;95821.53;;;14.72;59.77
9538;BME280;4807;48.024;11.726;2022-10-03T14:56:48;95816.78;;;14.61;59.98
9538;BME280;4807;48.024;11.726;2022-10-03T14:59:59;95816.97;;;14.53;62.33
9538;BME280;4807;48.024;11.726;2022-10-03T15:03:32;95812.81;;;14.44;61.03
9538;BME280;4807;48.024;11.726;2022-10-03T15:06:52;95809.44;;;14.16;61.58
9538;BME280;4807;48.024;11.726;2022-10-03T15:10:09;95807.03;;;14.34;61.40
9538;BME280;4807;48.024;11.726;2022-10-03T15:13:21;95809.13;;;14.51;61.52
9538;BME280;4807;48.024;11.726;2022-10-03T15:16:34;95806.69;;;14.70;59.54
9538;BME280;4807;48.024;11.726;2022-10-03T15:19:50;95803.75;;;14.45;58.09
9538;BME280;4807;48.024;11.726;2022-10-03T15:23:06;95796.56;;;14.52;59.88
9538;BME280;4807;48.024;11.726;2022-10-03T15:26:20;95814.13;;;14.74;59.07
9538;BME280;4807;48.024;11.726;2022-10-03T15:29:33;95808.31;;;14.77;60.44
9538;BME280;4807;48.024;11.726;2022-10-03T15:32:45;95811.00;;;14.58;60.71
9538;BME280;4807;48.024;11.726;2022-10-03T15:36:07;95809.56;;;14.48;62.32
9538;BME280;4807;48.024;11.726;2022-10-03T15:39:23;95812.38;;;14.34;62.33
9538;BME280;4807;48.024;11.726;2022-10-03T15:42:48;95818.53;;;14.28;61.79
9538;BME280;4807;48.024;11.726;2022-10-03T15:46:05;95815.63;;;14.09;62.86
9538;BME280;4807;48.024;11.726;2022-10-03T15:49:25;95814.72;;;13.89;62.77
9538;BME280;4807;48.024;11.726;2022-10-03T15:52:39;95811.75;;;13.71;64.16
9538;BME280;4807;48.024;11.726;2022-10-03T15:55:53;95811.22;;;13.48;65.07
9538;BME280;4807;48.024;11.726;2022-10-03T15:59:16;95805.72;;;13.21;65.52
9538;BME280;4807;48.024;11.726;2022-10-03T16:02:33;95812.97;;;13.06;67.18
9538;BME280;4807;48.024;11.726;2022-10-03T16:05:57;95805.81;;;12.79;67.71
9538;BME280;4807;48.024;11.726;2022-10-03T16:09:17;95803.91;;;12.51;68.32
9538;BME280;4807;48.024;11.726;2022-10-03T16:13:12;95800.63;;;12.28;69.85
9538;BME280;4807;48.024;11.726;2022-10-03T16:17:37;95807.97;;;12.05;70.65
9538;BME280;4807;48.024;11.726;2022-10-03T16:21:53;95804.00;;;12.01;71.09
9538;BME280;4807;48.024;11.726;2022-10-03T16:25:51;95806.00;;;11.77;71.86
9538;BME280;4807;48.024;11.726;2022-10-03T16:29:20;95808.53;;;11.50;73.09
9538;BME280;4807;48.024;11.726;2022-10-03T16:33:46;95816.41;;;11.28;73.15
9538;BME280;4807;48.024;11.726;2022-10-03T16:37:18;95809.16;;;11.22;73.80
9538;BME280;4807;48.024;11.726;2022-10-03T16:40:28;95816.88;;;11.02;74.30
9538;BME280;4807;48.024;11.726;2022-10-03T16:43:37;95815.66;;;10.90;74.78
9538;BME280;4807;48.024;11.726;2022-10-03T16:46:46;95823.47;;;10.77;75.24
9538;BME280;4807;48.024;11.726;2022-10-03T16:50:00;95823.94;;;10.58;75.83
9538;BME280;4807;48.024;11.726;2022-10-03T16:53:26;95824.91;;;10.42;75.95
9538;BME280;4807;48.024;11.726;2022-10-03T16:57:04;95821.84;;;10.30;77.14
9538;BME280;4807;48.024;11.726;2022-10-03T17:00:51;95826.06;;;10.17;76.82
9538;BME280;4807;48.024;11.726;2022-10-03T17:04:32;95831.63;;;10.07;77.23
9538;BME280;4807;48.024;11.726;2022-10-03T17:07:53;95832.53;;;9.91;78.34
9538;BME280;4807;48.024;11.726;2022-10-03T17:11:25;95833.78;;;9.81;77.76
9538;BME280;4807;48.024;11.726;2022-10-03T17:14:41;95831.50;;;9.70;78.75
9538;BME280;4807;48.024;11.726;2022-10-03T17:18:09;95832.22;;;9.64;79.08
9538;BME280;4807;48.024;11.726;2022-10-03T17:21:41;95842.22;;;9.53;78.46
9538;BME280;4807;48.024;11.726;2022-10-03T17:25:00;95850.38;;;9.44;79.05
9538;BME280;4807;48.024;11.726;2022-10-03T17:28:17;95850.72;;;9.41;78.54
9538;BME280;4807;48.024;11.726;2022-10-03T17:31:33;95842.28;;;9.37;78.96
9538;BME280;4807;48.024;11.726;2022-10-03T17:34:54;95839.47;;;9.31;79.22
9538;BME280;4807;48.024;11.726;2022-10-03T17:38:22;95837.00;;;9.21;80.12
9538;BME280;4807;48.024;11.726;2022-10-03T17:42:05;95838.69;;;9.14;79.86
9538;BME280;4807;48.024;11.726;2022-10-03T17:45:32;95843.38;;;9.04;80.87
9538;BME280;4807;48.024;11.726;2022-10-03T17:48:52;95844.53;;;9.01;81.10
9538;BME280;4807;48.024;11.726;2022-10-03T17:52:02;95846.03;;;8.96;81.31
9538;BME280;4807;48.024;11.726;2022-10-03T17:55:17;95849.69;;;8.95;81.50
9538;BME280;4807;48.024;11.726;2022-10-03T17:58:31;95846.72;;;8.90;81.97
9538;BME280;4807;48.024;11.726;2022-10-03T18:01:43;95852.34;;;8.87;82.21
9538;BME280;4807;48.024;11.726;2022-10-03T18:05:06;95855.03;;;8.78;82.15
9538;BME280;4807;48.024;11.726;2022-10-03T18:08:22;95852.72;;;8.67;83.03
9538;BME280;4807;48.024;11.726;2022-10-03T18:11:36;95854.38;;;8.60;82.55
9538;BME280;4807;48.024;11.726;2022-10-03T18:15:20;95854.72;;;8.57;82.89
9538;BME280;4807;48.024;11.726;2022-10-03T18:18:58;95852.38;;;8.54;83.16
9538;BME280;4807;48.024;11.726;2022-10-03T18:22:17;95854.72;;;8.49;83.06
9538;BME280;4807;48.024;11.726;2022-10-03T18:25:45;95845.75;;;8.34;83.27
9538;BME280;4807;48.024;11.726;2022-10-03T18:29:31;95847.75;;;8.32;83.34
9538;BME280;4807;48.024;11.726;2022-10-03T18:32:44;95839.59;;;8.25;83.43
9538;BME280;4807;48.024;11.726;2022-10-03T18:35:53;95843.06;;;8.26;83.23
9538;BME280;4807;48.024;11.726;2022-10-03T18:39:09;95846.69;;;8.09;83.70
9538;BME280;4807;48.024;11.726;2022-10-03T18:42:25;95848.34;;;8.10;84.11
9538;BME280;4807;48.024;11.726;2022-10-03T18:45:43;95850.03;;;8.19;83.83
9538;BME280;4807;48.024;11.726;2022-10-03T18:49:05;95844.19;;;8.07;83.26
9538;BME280;4807;48.024;11.726;2022-10-03T18:52:48;95846.66;;;7.92;83.63
9538;BME280;4807;48.024;11.726;2022-10-03T18:56:04;95856.56;;;7.82;84.40
9538;BME280;4807;48.024;11.726;2022-10-03T18:59:22;95855.03;;;7.72;84.43
9538;BME280;4807;48.024;11.726;2022-10-03T19:02:38;95860.81;;;7.59;84.75
9538;BME280;4807;48.024;11.726;2022-10-03T19:05:53;95858.06;;;7.77;84.19
9538;BME280;4807;48.024;11.726;2022-10-03T19:09:15;95865.13;;;7.60;85.10
9538;BME280;4807;48.024;11.726;2022-10-03T19:12:30;95859.28;;;7.48;85.31
9538;BME280;4807;48.024;11.726;2022-10-03T19:16:02;95858.63;;;7.54;84.77
9538;BME280;4807;48.024;11.726;2022-10-03T19:19:24;95855.28;;;7.44;85.50
9538;BME280;4807;48.024;11.726;2022-10-03T19:22:40;95843.44;;;7.64;84.27
9538;BME280;4807;48.024;11.726;2022-10-03T19:25:54;95846.81;;;7.41;85.59
9538;BME280;4807;48.024;11.726;2022-10-03T19:29:08;95845.91;;;7.66;84.06
9538;BME280;4807;48.024;11.726;2022-10-03T19:32:27;95846.19;;;7.47;85.36
9538;BME280;4807;48.024;11.726;2022-10-03T19:35:45;95850.06;;;7.26;85.79
9538;BME280;4807;48.024;11.726;2022-10-03T19:38:59;95852.00;;;7.16;85.53
9538;BME280;4807;48.024;11.726;2022-10-03T19:42:24;95847.19;;;7.12;85.67
9538;BME280;4807;48.024;11.726;2022-10-03T19:45:36;95842.78;;;7.20;85.57
9538;BME280;4807;48.024;11.726;2022-10-03T19:49:00;95840.53;;;7.08;85.78
9538;BME280;4807;48.024;11.726;2022-10-03T19:52:25;95842.50;;;7.06;85.53
9538;BME280;4807;48.024;11.726;2022-10-03T19:55:36;95834.06;;;7.02;86.26
9538;BME280;4807;48.024;11.726;2022-10-03T19:58:59;95843.03;;;7.09;85.82
9538;BME280;4807;48.024;11.726;2022-10-03T20:02:09;95832.56;;;7.00;86.57
9538;BME280;4807;48.024;11.726;2022-10-03T20:05:23;95839.09;;;7.13;85.86
9538;BME280;4807;48.024;11.726;2022-10-03T20:08:41;95841.84;;;7.04;85.81
9538;BME280;4807;48.024;11.726;2022-10-03T20:12:00;95844.81;;;7.01;86.26
9538;BME280;4807;48.024;11.726;2022-10-03T20:15:20;95847.31;;;7.02;86.37
9538;BME280;4807;48.024;11.726;2022-10-03T20:18:32;95847.66;;;7.07;86.48
9538;BME280;4807;48.024;11.726;2022-10-03T20:21:41;95848.09;;;7.28;85.96
9538;BME280;4807;48.024;11.726;2022-10-03T20:24:53;95845.69;;;7.43;86.25
9538;BME280;4807;48.024;11.726;2022-10-03T20:28:13;95842.91;;;7.53;85.33
9538;BME280;4807;48.024;11.726;2022-10-03T20:31:29;95841.44;;;7.58;84.73
9538;BME280;4807;48.024;11.726;2022-10-03T20:34:44;95847.53;;;7.51;85.43
9538;BME280;4807;48.024;11.726;2022-10-03T20:38:04;95835.25;;;7.50;84.67
9538;BME280;4807;48.024;11.726;2022-10-03T20:41:25;95837.59;;;7.45;84.86
9538;BME280;4807;48.024;11.726;2022-10-03T20:45:05;95822.69;;;7.52;85.23
9538;BME280;4807;48.024;11.726;2022-10-03T20:48:26;95836.44;;;7.55;84.94